sensor_id;sensor_type;location;lat;lon;timestamp;pressure;altitude;pressure_sealevel;temperature;humidity
7768;BME280;3928;42.626;23.382;2022-12-18T00:01:36;94869.13;;;9.87;100.00
7768;BME280;3928;42.626;23.382;2022-12-18T00:04:11;94866.66;;;9.73;100.00
7768;BME280;3928;42.626;23.382;2022-12-18T00:06:41;94883.78;;;9.62;100.00
7768;BME280;3928;42.626;23.382;2022-12-18T00:09:08;94873.50;;;9.63;99.89
7768;BME280;3928;42.626;23.382;2022-12-18T00:11:35;94876.97;;;9.59;99.74
7768;BME280;3928;42.626;23.382;2022-12-18T00:14:02;94873.56;;;9.50;99.08
7768;BME280;3928;42.626;23.382;2022-12-18T00:16:30;94885.53;;;9.45;99.87
7768;BME280;3928;42.626;23.382;2022-12-18T00:18:59;94888.09;;;9.45;99.51
7768;BME280;3928;42.626;23.382;2022-12-18T00:21:26;94889.84;;;9.30;99.29
7768;BME280;3928;42.626;23.382;2022-12-18T00:23:54;94884.75;;;9.11;99.85
7768;BME280;3928;42.626;23.382;2022-12-18T00:26:23;94900.09;;;9.11;100.00
7768;BME280;3928;42.626;23.382;2022-12-18T00:28:50;94864.34;;;8.77;100.00
7768;BME280;3928;42.626;23.382;2022-12-18T00:31:20;94893.31;;;8.82;100.00
7768;BME280;3928;42.626;23.382;2022-12-18T00:33:49;94879.69;;;8.71;100.00
7768;BME280;3928;42.626;23.382;2022-12-18T00:36:18;94907.81;;;8.75;100.00
7768;BME280;3928;42.626;23.382;2022-12-18T00:38:46;94907.84;;;8.82;100.00
7768;BME280;3928;42.626;23.382;2022-12-18T00:41:15;94888.22;;;8.79;100.00
7768;BME280;3928;42.626;23.382;2022-12-18T00:44:04;94909.53;;;8.70;100.00
7768;BME280;3928;42.626;23.382;2022-12-18T00:46:30;94914.66;;;8.67;100.00
7768;BME280;3928;42.626;23.382;2022-12-18T00:48:58;94916.38;;;8.53;100.00
7768;BME280;3928;42.626;23.382;2022-12-18T00:51:25;94926.59;;;8.65;100.00
7768;BME280;3928;42.626;23.382;2022-12-18T00:53:53;94925.72;;;8.63;100.00
7768;BME280;3928;42.626;23.382;2022-12-18T00:56:19;94921.47;;;8.62;100.00
7768;BME280;3928;42.626;23.382;2022-12-18T00:58:46;94921.50;;;8.65;100.00
7768;BME280;3928;42.626;23.382;2022-12-18T01:01:13;94918.06;;;8.66;100.00
7768;BME280;3928;42.626;23.382;2022-12-18T01:03:40;94926.59;;;8.74;100.00
7768;BME280;3928;42.626;23.382;2022-12-18T01:06:10;94916.38;;;8.77;100.00
7768;BME280;3928;42.626;23.382;2022-12-18T01:08:38;94924.88;;;8.83;100.00
7768;BME280;3928;42.626;23.382;2022-12-18T01:11:08;94931.72;;;8.90;100.00
7768;BME280;3928;42.626;23.382;2022-12-18T01:13:35;94936.81;;;8.99;98.79
7768;BME280;3928;42.626;23.382;2022-12-18T01:16:03;94932.56;;;9.01;98.41
7768;BME280;3928;42.626;23.382;2022-12-18T01:18:30;94943.66;;;8.88;99.06
7768;BME280;3928;42.626;23.382;2022-12-18T01:20:56;94935.97;;;8.82;99.81
7768;BME280;3928;42.626;23.382;2022-12-18T01:23:27;94933.41;;;8.69;100.00
7768;BME280;3928;42.626;23.382;2022-12-18T01:25:54;94941.94;;;8.71;99.67
7768;BME280;3928;42.626;23.382;2022-12-18T01:28:20;94943.66;;;8.75;99.70
7768;BME280;3928;42.626;23.382;2022-12-18T01:30:47;94954.75;;;8.68;99.82
7768;BME280;3928;42.626;23.382;2022-12-18T01:33:14;94950.50;;;8.76;99.10
7768;BME280;3928;42.626;23.382;2022-12-18T01:35:41;94951.34;;;8.65;98.98
7768;BME280;3928;42.626;23.382;2022-12-18T01:38:08;94948.75;;;8.48;98.60
7768;BME280;3928;42.626;23.382;2022-12-18T01:40:36;94930.75;;;8.24;98.37
7768;BME280;3928;42.626;23.382;2022-12-18T01:43:03;94958.13;;;8.43;98.72
7768;BME280;3928;42.626;23.382;2022-12-18T01:45:31;94944.44;;;8.32;98.55
7768;BME280;3928;42.626;23.382;2022-12-18T01:47:59;94970.03;;;8.36;98.33
7768;BME280;3928;42.626;23.382;2022-12-18T01:50:31;94968.34;;;8.41;98.29
7768;BME280;3928;42.626;23.382;2022-12-18T01:53:03;94956.38;;;8.40;97.65
7768;BME280;3928;42.626;23.382;2022-12-18T01:55:32;94957.25;;;8.38;98.04
7768;BME280;3928;42.626;23.382;2022-12-18T01:58:03;94965.75;;;8.38;97.11
7768;BME280;3928;42.626;23.382;2022-12-18T02:00:31;94972.56;;;8.32;97.31
7768;BME280;3928;42.626;23.382;2022-12-18T02:02:58;94976.03;;;8.46;97.49
7768;BME280;3928;42.626;23.382;2022-12-18T02:05:34;94976.03;;;8.46;96.76
7768;BME280;3928;42.626;23.382;2022-12-18T02:08:09;94971.75;;;8.34;95.92
7768;BME280;3928;42.626;23.382;2022-12-18T02:10:45;94975.94;;;8.25;96.61
7768;BME280;3928;42.626;23.382;2022-12-18T02:13:19;94984.41;;;8.11;97.18
7768;BME280;3928;42.626;23.382;2022-12-18T02:15:51;94989.53;;;8.05;97.75
7768;BME280;3928;42.626;23.382;2022-12-18T02:18:23;94882.78;;;7.45;97.51
7768;BME280;3928;42.626;23.382;2022-12-18T02:20:55;94989.53;;;8.11;97.04
7768;BME280;3928;42.626;23.382;2022-12-18T02:23:39;94989.47;;;7.98;97.44
7768;BME280;3928;42.626;23.382;2022-12-18T02:26:16;94991.13;;;7.82;99.01
7768;BME280;3928;42.626;23.382;2022-12-18T02:28:49;94993.72;;;7.94;99.42
7768;BME280;3928;42.626;23.382;2022-12-18T02:31:22;94992.88;;;7.95;97.63
7768;BME280;3928;42.626;23.382;2022-12-18T02:33:52;94998.84;;;7.96;98.46
7768;BME280;3928;42.626;23.382;2022-12-18T02:36:20;94997.09;;;7.88;98.07
7768;BME280;3928;42.626;23.382;2022-12-18T02:38:49;95003.03;;;7.83;98.25
7768;BME280;3928;42.626;23.382;2022-12-18T02:41:18;94990.22;;;7.71;99.46
7768;BME280;3928;42.626;23.382;2022-12-18T02:43:47;95002.94;;;7.68;99.75
7768;BME280;3928;42.626;23.382;2022-12-18T02:46:27;95001.28;;;7.73;99.98
7768;BME280;3928;42.626;23.382;2022-12-18T02:49:03;94995.28;;;7.65;99.19
7768;BME280;3928;42.626;23.382;2022-12-18T02:51:37;95008.94;;;7.73;99.71
7768;BME280;3928;42.626;23.382;2022-12-18T02:54:10;94987.63;;;7.66;99.65
7768;BME280;3928;42.626;23.382;2022-12-18T02:56:46;95014.06;;;7.70;99.85
7768;BME280;3928;42.626;23.382;2022-12-18T02:59:19;95018.38;;;7.83;99.23
7768;BME280;3928;42.626;23.382;2022-12-18T03:01:51;95010.66;;;7.75;98.38
7768;BME280;3928;42.626;23.382;2022-12-18T03:04:24;95026.97;;;7.94;98.18
7768;BME280;3928;42.626;23.382;2022-12-18T03:06:54;95026.97;;;7.97;97.22
7768;BME280;3928;42.626;23.382;2022-12-18T03:09:28;95014.13;;;7.89;96.71
7768;BME280;3928;42.626;23.382;2022-12-18T03:12:03;95025.19;;;7.87;97.45
7768;BME280;3928;42.626;23.382;2022-12-18T03:14:52;95018.31;;;7.74;97.08
7768;BME280;3928;42.626;23.382;2022-12-18T03:17:23;95029.41;;;7.74;97.63
7768;BME280;3928;42.626;23.382;2022-12-18T03:19:53;95028.53;;;7.74;97.24
7768;BME280;3928;42.626;23.382;2022-12-18T03:22:23;95033.66;;;7.78;97.25
7768;BME280;3928;42.626;23.382;2022-12-18T03:24:51;95028.50;;;7.68;96.99
7768;BME280;3928;42.626;23.382;2022-12-18T03:27:22;95039.56;;;7.67;97.57
7768;BME280;3928;42.626;23.382;2022-12-18T03:29:52;95037.00;;;7.63;97.15
7768;BME280;3928;42.626;23.382;2022-12-18T03:32:24;95048.06;;;7.69;97.45
7768;BME280;3928;42.626;23.382;2022-12-18T03:34:56;95057.44;;;7.63;96.69
7768;BME280;3928;42.626;23.382;2022-12-18T03:37:24;95055.78;;;7.70;97.37
7768;BME280;3928;42.626;23.382;2022-12-18T03:39:51;95055.66;;;7.53;97.30
7768;BME280;3928;42.626;23.382;2022-12-18T03:42:25;95053.09;;;7.53;97.37
7768;BME280;3928;42.626;23.382;2022-12-18T03:44:58;95067.56;;;7.50;97.54
7768;BME280;3928;42.626;23.382;2022-12-18T03:47:33;94963.13;;;6.71;98.50
7768;BME280;3928;42.626;23.382;2022-12-18T03:50:06;95086.22;;;7.41;98.11
7768;BME280;3928;42.626;23.382;2022-12-18T03:52:40;95088.00;;;7.54;98.08
7768;BME280;3928;42.626;23.382;2022-12-18T03:55:09;95093.16;;;7.59;97.35
7768;BME280;3928;42.626;23.382;2022-12-18T03:57:39;95090.63;;;7.59;96.58
7768;BME280;3928;42.626;23.382;2022-12-18T04:00:11;95092.25;;;7.54;96.49
7768;BME280;3928;42.626;23.382;2022-12-18T04:02:42;95083.63;;;7.38;96.02
7768;BME280;3928;42.626;23.382;2022-12-18T04:05:10;95081.16;;;7.47;95.91
7768;BME280;3928;42.626;23.382;2022-12-18T04:07:38;95081.06;;;7.35;96.22
7768;BME280;3928;42.626;23.382;2022-12-18T04:10:07;95086.72;;;7.02;96.44
7768;BME280;3928;42.626;23.382;2022-12-18T04:12:39;94997.91;;;6.63;96.92
7768;BME280;3928;42.626;23.382;2022-12-18T04:15:07;95096.97;;;7.07;97.02
7768;BME280;3928;42.626;23.382;2022-12-18T04:17:34;95096.00;;;6.95;97.68
7768;BME280;3928;42.626;23.382;2022-12-18T04:20:01;95101.81;;;6.81;97.67
7768;BME280;3928;42.626;23.382;2022-12-18T04:22:28;95099.25;;;6.79;98.06
7768;BME280;3928;42.626;23.382;2022-12-18T04:24:55;95112.91;;;6.84;97.87
7768;BME280;3928;42.626;23.382;2022-12-18T04:27:21;95106.22;;;6.95;97.06
7768;BME280;3928;42.626;23.382;2022-12-18T04:29:50;95103.56;;;6.86;96.32
7768;BME280;3928;42.626;23.382;2022-12-18T04:32:16;95105.19;;;6.77;96.54
7768;BME280;3928;42.626;23.382;2022-12-18T04:34:43;95096.56;;;6.67;97.14
7768;BME280;3928;42.626;23.382;2022-12-18T04:37:10;95107.03;;;6.90;96.28
7768;BME280;3928;42.626;23.382;2022-12-18T04:39:37;95108.59;;;6.76;95.65
7768;BME280;3928;42.626;23.382;2022-12-18T04:42:03;95126.44;;;6.76;95.99
7768;BME280;3928;42.626;23.382;2022-12-18T04:44:30;95128.22;;;6.84;94.94
7768;BME280;3928;42.626;23.382;2022-12-18T04:46:58;95133.25;;;6.78;94.16
7768;BME280;3928;42.626;23.382;2022-12-18T04:49:25;95130.47;;;6.58;94.75
7768;BME280;3928;42.626;23.382;2022-12-18T04:51:52;95145.06;;;6.71;93.92
7768;BME280;3928;42.626;23.382;2022-12-18T04:54:19;95147.47;;;6.58;94.09
7768;BME280;3928;42.626;23.382;2022-12-18T04:56:46;95142.34;;;6.55;94.32
7768;BME280;3928;42.626;23.382;2022-12-18T04:59:13;95148.34;;;6.60;94.46
7768;BME280;3928;42.626;23.382;2022-12-18T05:01:39;95149.34;;;6.74;94.57
7768;BME280;3928;42.626;23.382;2022-12-18T05:04:07;95127.09;;;6.61;92.87
7768;BME280;3928;42.626;23.382;2022-12-18T05:06:34;95153.41;;;6.57;93.12
7768;BME280;3928;42.626;23.382;2022-12-18T05:09:01;95163.50;;;6.48;93.38
7768;BME280;3928;42.626;23.382;2022-12-18T05:11:28;95160.81;;;6.37;93.58
7768;BME280;3928;42.626;23.382;2022-12-18T05:13:56;95171.22;;;6.52;92.90
7768;BME280;3928;42.626;23.382;2022-12-18T05:16:23;95180.75;;;6.67;92.89
7768;BME280;3928;42.626;23.382;2022-12-18T05:18:49;95179.19;;;6.80;91.58
7768;BME280;3928;42.626;23.382;2022-12-18T05:21:18;95182.38;;;6.62;91.51
7768;BME280;3928;42.626;23.382;2022-12-18T05:23:44;95190.06;;;6.63;91.49
7768;BME280;3928;42.626;23.382;2022-12-18T05:26:15;95197.00;;;6.75;91.42
7768;BME280;3928;42.626;23.382;2022-12-18T05:28:43;95199.38;;;6.63;91.17
7768;BME280;3928;42.626;23.382;2022-12-18T05:31:10;95197.66;;;6.62;91.36
7768;BME280;3928;42.626;23.382;2022-12-18T05:33:37;95184.88;;;6.59;91.30
7768;BME280;3928;42.626;23.382;2022-12-18T05:36:06;95194.28;;;6.63;91.08
7768;BME280;3928;42.626;23.382;2022-12-18T05:38:37;95208.09;;;6.77;90.78
7768;BME280;3928;42.626;23.382;2022-12-18T05:41:04;95202.19;;;6.83;90.43
7768;BME280;3928;42.626;23.382;2022-12-18T05:43:33;95209.06;;;6.88;90.08
7768;BME280;3928;42.626;23.382;2022-12-18T05:46:04;95203.91;;;6.85;90.55
7768;BME280;3928;42.626;23.382;2022-12-18T05:48:31;95208.94;;;6.79;90.13
7768;BME280;3928;42.626;23.382;2022-12-18T05:51:03;95210.66;;;6.80;90.65
7768;BME280;3928;42.626;23.382;2022-12-18T05:53:30;95216.44;;;6.67;90.58
7768;BME280;3928;42.626;23.382;2022-12-18T05:56:01;95219.56;;;6.44;92.11
7768;BME280;3928;42.626;23.382;2022-12-18T05:58:29;95225.22;;;6.25;92.64
7768;BME280;3928;42.626;23.382;2022-12-18T06:00:56;95058.91;;;5.20;92.30
7768;BME280;3928;42.626;23.382;2022-12-18T06:03:23;95223.50;;;6.24;92.38
7768;BME280;3928;42.626;23.382;2022-12-18T06:05:50;95220.25;;;6.34;91.70
7768;BME280;3928;42.626;23.382;2022-12-18T06:08:17;95213.59;;;6.44;91.65
7768;BME280;3928;42.626;23.382;2022-12-18T06:10:50;95229.78;;;6.48;90.87
7768;BME280;3928;42.626;23.382;2022-12-18T06:13:19;95229.88;;;6.54;91.55
7768;BME280;3928;42.626;23.382;2022-12-18T06:15:46;95233.09;;;6.40;91.53
7768;BME280;3928;42.626;23.382;2022-12-18T06:18:13;95232.34;;;6.49;91.82
7768;BME280;3928;42.626;23.382;2022-12-18T06:20:40;95241.81;;;6.58;90.54
7768;BME280;3928;42.626;23.382;2022-12-18T06:23:07;95235.59;;;6.39;91.32
7768;BME280;3928;42.626;23.382;2022-12-18T06:25:37;95254.94;;;6.23;91.99
7768;BME280;3928;42.626;23.382;2022-12-18T06:28:04;95248.13;;;6.22;92.07
7768;BME280;3928;42.626;23.382;2022-12-18T06:30:33;95250.84;;;6.34;91.73
7768;BME280;3928;42.626;23.382;2022-12-18T06:33:00;95256.09;;;6.45;91.26
7768;BME280;3928;42.626;23.382;2022-12-18T06:35:26;95259.47;;;6.42;90.86
7768;BME280;3928;42.626;23.382;2022-12-18T06:37:53;95268.72;;;6.37;91.74
7768;BME280;3928;42.626;23.382;2022-12-18T06:40:20;95270.59;;;6.48;91.34
7768;BME280;3928;42.626;23.382;2022-12-18T06:42:47;95255.97;;;6.37;91.41
7768;BME280;3928;42.626;23.382;2022-12-18T06:45:14;95279.09;;;6.50;90.61
7768;BME280;3928;42.626;23.382;2022-12-18T06:47:42;95278.44;;;6.63;89.29
7768;BME280;3928;42.626;23.382;2022-12-18T06:50:09;95274.25;;;6.66;89.50
7768;BME280;3928;42.626;23.382;2022-12-18T06:52:36;95267.19;;;6.49;89.04
7768;BME280;3928;42.626;23.382;2022-12-18T06:55:05;95285.31;;;6.65;89.22
7768;BME280;3928;42.626;23.382;2022-12-18T06:57:32;95284.50;;;6.69;88.30
7768;BME280;3928;42.626;23.382;2022-12-18T06:59:59;95286.84;;;6.54;88.86
7768;BME280;3928;42.626;23.382;2022-12-18T07:02:25;95279.06;;;6.47;88.59
7768;BME280;3928;42.626;23.382;2022-12-18T07:04:54;95281.53;;;6.40;88.44
7768;BME280;3928;42.626;23.382;2022-12-18T07:07:20;95285.88;;;6.48;88.76
7768;BME280;3928;42.626;23.382;2022-12-18T07:09:49;95257.75;;;6.40;88.47
7768;BME280;3928;42.626;23.382;2022-12-18T07:12:16;95288.22;;;6.32;87.91
7768;BME280;3928;42.626;23.382;2022-12-18T07:14:43;95300.97;;;6.32;87.52
7768;BME280;3928;42.626;23.382;2022-12-18T07:17:10;95299.81;;;6.15;87.79
7768;BME280;3928;42.626;23.382;2022-12-18T07:19:37;95300.84;;;6.26;88.73
7768;BME280;3928;42.626;23.382;2022-12-18T07:22:05;95300.97;;;6.34;89.19
7768;BME280;3928;42.626;23.382;2022-12-18T07:24:32;95273.75;;;6.31;89.31
7768;BME280;3928;42.626;23.382;2022-12-18T07:26:59;95291.25;;;6.66;86.67
7768;BME280;3928;42.626;23.382;2022-12-18T07:29:26;95300.00;;;6.83;85.66
7768;BME280;3928;42.626;23.382;2022-12-18T07:31:53;95304.00;;;6.66;85.51
7768;BME280;3928;42.626;23.382;2022-12-18T07:34:20;95308.06;;;6.52;86.21
7768;BME280;3928;42.626;23.382;2022-12-18T07:36:47;95307.13;;;6.47;86.26
7768;BME280;3928;42.626;23.382;2022-12-18T07:39:15;95307.94;;;6.45;85.88
7768;BME280;3928;42.626;23.382;2022-12-18T07:41:42;95312.31;;;6.51;85.71
7768;BME280;3928;42.626;23.382;2022-12-18T07:44:11;95301.88;;;6.39;84.91
7768;BME280;3928;42.626;23.382;2022-12-18T07:46:38;95318.19;;;6.49;85.37
7768;BME280;3928;42.626;23.382;2022-12-18T07:49:05;95322.63;;;6.62;85.29
7768;BME280;3928;42.626;23.382;2022-12-18T07:51:32;95326.72;;;6.51;84.80
7768;BME280;3928;42.626;23.382;2022-12-18T07:53:59;95334.22;;;6.40;84.51
7768;BME280;3928;42.626;23.382;2022-12-18T07:56:27;95327.53;;;6.48;84.89
7768;BME280;3928;42.626;23.382;2022-12-18T07:58:54;95332.56;;;6.43;84.58
7768;BME280;3928;42.626;23.382;2022-12-18T08:01:21;95331.75;;;6.44;85.00
7768;BME280;3928;42.626;23.382;2022-12-18T08:03:48;95336.72;;;6.38;84.59
7768;BME280;3928;42.626;23.382;2022-12-18T08:06:14;95351.91;;;6.29;84.69
7768;BME280;3928;42.626;23.382;2022-12-18T08:08:41;95322.22;;;6.33;84.63
7768;BME280;3928;42.626;23.382;2022-12-18T08:11:08;95357.19;;;6.40;84.85
7768;BME280;3928;42.626;23.382;2022-12-18T08:13:36;95361.41;;;6.39;84.98
7768;BME280;3928;42.626;23.382;2022-12-18T08:16:05;95374.09;;;6.36;84.48
7768;BME280;3928;42.626;23.382;2022-12-18T08:18:33;95368.03;;;6.28;84.29
7768;BME280;3928;42.626;23.382;2022-12-18T08:21:07;95379.75;;;6.19;84.82
7768;BME280;3928;42.626;23.382;2022-12-18T08:23:34;95371.50;;;6.33;84.37
7768;BME280;3928;42.626;23.382;2022-12-18T08:26:01;95394.56;;;6.39;83.76
7768;BME280;3928;42.626;23.382;2022-12-18T08:28:28;95384.38;;;6.39;83.89
7768;BME280;3928;42.626;23.382;2022-12-18T08:30:57;95386.16;;;6.47;83.56
7768;BME280;3928;42.626;23.382;2022-12-18T08:33:24;95379.19;;;6.36;83.28
7768;BME280;3928;42.626;23.382;2022-12-18T08:35:51;95396.00;;;6.25;83.47
7768;BME280;3928;42.626;23.382;2022-12-18T08:38:18;95382.53;;;6.32;84.13
7768;BME280;3928;42.626;23.382;2022-12-18T08:40:45;95383.25;;;6.25;83.91
7768;BME280;3928;42.626;23.382;2022-12-18T08:43:12;95396.28;;;6.40;84.00
7768;BME280;3928;42.626;23.382;2022-12-18T08:46:00;95385.94;;;6.33;84.71
7768;BME280;3928;42.626;23.382;2022-12-18T08:48:27;95397.78;;;6.29;84.79
7768;BME280;3928;42.626;23.382;2022-12-18T08:50:54;95394.56;;;6.39;84.33
7768;BME280;3928;42.626;23.382;2022-12-18T08:53:21;95383.63;;;6.48;83.84
7768;BME280;3928;42.626;23.382;2022-12-18T08:55:48;95387.03;;;6.47;83.47
7768;BME280;3928;42.626;23.382;2022-12-18T08:58:15;95372.53;;;6.44;83.59
7768;BME280;3928;42.626;23.382;2022-12-18T09:00:42;95390.53;;;6.52;82.93
7768;BME280;3928;42.626;23.382;2022-12-18T09:03:12;95390.44;;;6.48;82.46
7768;BME280;3928;42.626;23.382;2022-12-18T09:05:39;95399.75;;;6.45;82.77
7768;BME280;3928;42.626;23.382;2022-12-18T09:08:06;95379.38;;;6.47;83.29
7768;BME280;3928;42.626;23.382;2022-12-18T09:10:33;95377.84;;;6.57;82.97
7768;BME280;3928;42.626;23.382;2022-12-18T09:13:00;95386.50;;;6.68;82.87
7768;BME280;3928;42.626;23.382;2022-12-18T09:15:27;95386.72;;;6.83;82.50
7768;BME280;3928;42.626;23.382;2022-12-18T09:17:53;95383.31;;;6.81;82.50
7768;BME280;3928;42.626;23.382;2022-12-18T09:20:21;95390.22;;;6.87;81.88
7768;BME280;3928;42.626;23.382;2022-12-18T09:22:49;95383.34;;;6.84;82.74
7768;BME280;3928;42.626;23.382;2022-12-18T09:25:17;95382.69;;;6.97;81.53
7768;BME280;3928;42.626;23.382;2022-12-18T09:27:47;95368.97;;;6.89;81.36
7768;BME280;3928;42.626;23.382;2022-12-18T09:30:13;95383.25;;;6.77;81.68
7768;BME280;3928;42.626;23.382;2022-12-18T09:32:40;95394.19;;;6.69;82.47
7768;BME280;3928;42.626;23.382;2022-12-18T09:35:07;95389.13;;;6.72;82.73
7768;BME280;3928;42.626;23.382;2022-12-18T09:37:35;95385.72;;;6.72;82.23
7768;BME280;3928;42.626;23.382;2022-12-18T09:40:02;95393.50;;;6.81;81.74
7768;BME280;3928;42.626;23.382;2022-12-18T09:42:29;95388.19;;;6.66;81.63
7768;BME280;3928;42.626;23.382;2022-12-18T09:44:58;95387.22;;;6.59;81.07
7768;BME280;3928;42.626;23.382;2022-12-18T09:47:29;95390.66;;;6.63;81.15
7768;BME280;3928;42.626;23.382;2022-12-18T09:50:01;95394.97;;;6.64;80.96
7768;BME280;3928;42.626;23.382;2022-12-18T09:52:32;95383.91;;;6.63;81.65
7768;BME280;3928;42.626;23.382;2022-12-18T09:55:05;95376.28;;;6.65;84.70
7768;BME280;3928;42.626;23.382;2022-12-18T09:57:40;95376.56;;;6.86;84.54
7768;BME280;3928;42.626;23.382;2022-12-18T10:00:15;95369.88;;;6.93;83.25
7768;BME280;3928;42.626;23.382;2022-12-18T10:02:43;95381.94;;;7.04;81.66
7768;BME280;3928;42.626;23.382;2022-12-18T10:05:13;95392.31;;;7.15;79.89
7768;BME280;3928;42.626;23.382;2022-12-18T10:07:48;95356.38;;;7.01;78.59
7768;BME280;3928;42.626;23.382;2022-12-18T10:10:34;95388.22;;;7.28;79.23
7768;BME280;3928;42.626;23.382;2022-12-18T10:13:09;95381.53;;;7.36;78.10
7768;BME280;3928;42.626;23.382;2022-12-18T10:16:08;95393.06;;;7.10;77.64
7768;BME280;3928;42.626;23.382;2022-12-18T10:19:00;95390.50;;;7.10;78.71
7768;BME280;3928;42.626;23.382;2022-12-18T10:21:32;95390.66;;;7.19;76.17
7768;BME280;3928;42.626;23.382;2022-12-18T10:24:11;95397.44;;;7.17;75.39
7768;BME280;3928;42.626;23.382;2022-12-18T10:26:42;95396.59;;;7.19;75.95
7768;BME280;3928;42.626;23.382;2022-12-18T10:29:12;95394.03;;;7.18;75.04
7768;BME280;3928;42.626;23.382;2022-12-18T10:31:39;95388.13;;;7.22;75.15
7768;BME280;3928;42.626;23.382;2022-12-18T10:34:09;95390.44;;;7.03;74.87
7768;BME280;3928;42.626;23.382;2022-12-18T10:36:37;95392.06;;;6.98;74.62
7768;BME280;3928;42.626;23.382;2022-12-18T10:39:17;95389.94;;;6.70;76.26
7768;BME280;3928;42.626;23.382;2022-12-18T10:41:46;95392.16;;;6.50;75.94
7768;BME280;3928;42.626;23.382;2022-12-18T10:44:17;95376.00;;;6.50;78.11
7768;BME280;3928;42.626;23.382;2022-12-18T10:46:45;95377.97;;;6.66;82.79
7768;BME280;3928;42.626;23.382;2022-12-18T10:49:21;95292.81;;;6.02;77.80
7768;BME280;3928;42.626;23.382;2022-12-18T10:51:49;95378.66;;;6.56;81.54
7768;BME280;3928;42.626;23.382;2022-12-18T10:54:17;95383.13;;;6.69;78.02
7768;BME280;3928;42.626;23.382;2022-12-18T10:56:47;95377.91;;;6.63;78.17
7768;BME280;3928;42.626;23.382;2022-12-18T10:59:15;95373.38;;;6.45;78.30
7768;BME280;3928;42.626;23.382;2022-12-18T11:01:48;95378.72;;;6.60;78.36
7768;BME280;3928;42.626;23.382;2022-12-18T11:04:18;95380.59;;;6.72;77.38
7768;BME280;3928;42.626;23.382;2022-12-18T11:06:57;95377.03;;;6.61;76.99
7768;BME280;3928;42.626;23.382;2022-12-18T11:09:26;95379.53;;;6.58;77.00
7768;BME280;3928;42.626;23.382;2022-12-18T11:11:56;95383.91;;;6.63;76.29
7768;BME280;3928;42.626;23.382;2022-12-18T11:14:28;95389.81;;;6.62;75.86
7768;BME280;3928;42.626;23.382;2022-12-18T11:16:56;95378.50;;;6.45;76.62
7768;BME280;3928;42.626;23.382;2022-12-18T11:19:32;95372.78;;;6.60;76.21
7768;BME280;3928;42.626;23.382;2022-12-18T11:22:00;95385.31;;;6.48;72.77
7768;BME280;3928;42.626;23.382;2022-12-18T11:24:30;95403.78;;;6.33;73.12
7768;BME280;3928;42.626;23.382;2022-12-18T11:27:03;95393.00;;;6.49;73.32
7768;BME280;3928;42.626;23.382;2022-12-18T11:29:35;95388.00;;;6.54;72.34
7768;BME280;3928;42.626;23.382;2022-12-18T11:32:23;95392.06;;;6.42;72.76
7768;BME280;3928;42.626;23.382;2022-12-18T11:34:55;95384.28;;;6.36;74.05
7768;BME280;3928;42.626;23.382;2022-12-18T11:37:25;95399.09;;;6.57;73.06
7768;BME280;3928;42.626;23.382;2022-12-18T11:39:57;95395.81;;;6.64;77.72
7768;BME280;3928;42.626;23.382;2022-12-18T11:42:34;95396.38;;;7.01;77.14
7768;BME280;3928;42.626;23.382;2022-12-18T11:45:14;95383.78;;;7.15;75.89
7768;BME280;3928;42.626;23.382;2022-12-18T11:47:51;95395.22;;;7.44;83.10
7768;BME280;3928;42.626;23.382;2022-12-18T11:50:21;95391.75;;;7.38;70.16
7768;BME280;3928;42.626;23.382;2022-12-18T11:52:50;95397.03;;;7.50;71.78
7768;BME280;3928;42.626;23.382;2022-12-18T11:55:25;95402.91;;;7.44;69.20
7768;BME280;3928;42.626;23.382;2022-12-18T11:58:01;95408.22;;;7.59;68.52
7768;BME280;3928;42.626;23.382;2022-12-18T12:00:35;95397.84;;;7.47;67.45
7768;BME280;3928;42.626;23.382;2022-12-18T12:06:09;95394.72;;;7.04;67.61
7768;BME280;3928;42.626;23.382;2022-12-18T12:08:50;95399.59;;;6.88;68.13
7768;BME280;3928;42.626;23.382;2022-12-18T12:11:23;95403.81;;;6.87;69.18
7768;BME280;3928;42.626;23.382;2022-12-18T12:14:17;95400.41;;;6.87;69.43
7768;BME280;3928;42.626;23.382;2022-12-18T12:16:52;95402.13;;;6.88;69.33
7768;BME280;3928;42.626;23.382;2022-12-18T12:19:32;95397.81;;;6.85;70.38
7768;BME280;3928;42.626;23.382;2022-12-18T12:22:09;95407.31;;;6.95;70.55
7768;BME280;3928;42.626;23.382;2022-12-18T12:24:48;95403.31;;;7.11;70.79
7768;BME280;3928;42.626;23.382;2022-12-18T12:27:25;95402.16;;;6.91;70.49
7768;BME280;3928;42.626;23.382;2022-12-18T12:30:02;95413.31;;;6.97;70.22
7768;BME280;3928;42.626;23.382;2022-12-18T12:32:50;95404.09;;;7.07;71.17
7768;BME280;3928;42.626;23.382;2022-12-18T12:35:28;95409.91;;;6.98;71.10
7768;BME280;3928;42.626;23.382;2022-12-18T12:38:05;95411.72;;;7.04;71.35
7768;BME280;3928;42.626;23.382;2022-12-18T12:40:37;95410.03;;;7.06;71.63
7768;BME280;3928;42.626;23.382;2022-12-18T12:43:16;95413.56;;;7.13;71.01
7768;BME280;3928;42.626;23.382;2022-12-18T12:45:48;95396.38;;;7.01;71.49
7768;BME280;3928;42.626;23.382;2022-12-18T12:48:23;95410.72;;;6.94;71.53
7768;BME280;3928;42.626;23.382;2022-12-18T12:50:54;95415.84;;;6.97;71.77
7768;BME280;3928;42.626;23.382;2022-12-18T12:53:28;95402.00;;;6.80;72.17
7768;BME280;3928;42.626;23.382;2022-12-18T12:55:57;95413.00;;;6.76;73.17
7768;BME280;3928;42.626;23.382;2022-12-18T12:58:31;95419.34;;;7.01;73.41
7768;BME280;3928;42.626;23.382;2022-12-18T13:01:09;95421.28;;;7.19;73.05
7768;BME280;3928;42.626;23.382;2022-12-18T13:03:44;95428.28;;;7.32;72.33
7768;BME280;3928;42.626;23.382;2022-12-18T13:06:19;95419.81;;;7.35;71.84
7768;BME280;3928;42.626;23.382;2022-12-18T13:08:53;95434.53;;;7.54;71.22
7768;BME280;3928;42.626;23.382;2022-12-18T13:11:34;95432.66;;;7.42;71.07
7768;BME280;3928;42.626;23.382;2022-12-18T13:14:22;95436.16;;;7.47;70.92
7768;BME280;3928;42.626;23.382;2022-12-18T13:16:50;95444.88;;;7.63;70.78
7768;BME280;3928;42.626;23.382;2022-12-18T13:19:25;95437.25;;;7.68;70.28
7768;BME280;3928;42.626;23.382;2022-12-18T13:21:54;95442.44;;;7.71;70.43
7768;BME280;3928;42.626;23.382;2022-12-18T13:24:25;95438.94;;;7.66;70.17
7768;BME280;3928;42.626;23.382;2022-12-18T13:26:53;95431.06;;;7.47;70.25
7768;BME280;3928;42.626;23.382;2022-12-18T13:29:42;95447.97;;;7.39;71.61
7768;BME280;3928;42.626;23.382;2022-12-18T13:32:31;95452.03;;;7.25;71.66
7768;BME280;3928;42.626;23.382;2022-12-18T13:35:37;95456.19;;;7.20;72.50
7768;BME280;3928;42.626;23.382;2022-12-18T13:38:21;95451.88;;;7.16;71.77
7768;BME280;3928;42.626;23.382;2022-12-18T13:40:55;95451.81;;;7.11;72.71
7768;BME280;3928;42.626;23.382;2022-12-18T13:43:26;95444.91;;;7.06;72.85